sensor_id;sensor_type;location;lat;lon;timestamp;P1;durP1;ratioP1;P2;durP2;ratioP2
68923;SDS011;55961;52.156;20.942;2022-09-09T00:00:36;9.68;;;4.00;;
68923;SDS011;55961;52.156;20.942;2022-09-09T00:03:26;8.77;;;3.20;;
68923;SDS011;55961;52.156;20.942;2022-09-09T00:08:32;10.93;;;4.22;;
68923;SDS011;55961;52.156;20.942;2022-09-09T00:11:11;11.57;;;4.60;;
68923;SDS011;55961;52.156;20.942;2022-09-09T00:13:42;8.90;;;3.88;;
68923;SDS011;55961;52.156;20.942;2022-09-09T00:16:21;10.90;;;3.58;;
68923;SDS011;55961;52.156;20.942;2022-09-09T00:21:47;10.52;;;4.43;;
68923;SDS011;55961;52.156;20.942;2022-09-09T00:27:07;10.98;;;4.68;;
68923;SDS011;55961;52.156;20.942;2022-09-09T00:32:24;10.75;;;4.63;;
68923;SDS011;55961;52.156;20.942;2022-09-09T00:34:55;7.68;;;3.83;;
68923;SDS011;55961;52.156;20.942;2022-09-09T00:37:35;10.13;;;4.00;;
68923;SDS011;55961;52.156;20.942;2022-09-09T00:40:07;11.25;;;4.63;;
68923;SDS011;55961;52.156;20.942;2022-09-09T00:42:43;11.60;;;4.43;;
68923;SDS011;55961;52.156;20.942;2022-09-09T00:47:42;10.70;;;5.00;;
68923;SDS011;55961;52.156;20.942;2022-09-09T00:53:05;12.10;;;4.80;;
68923;SDS011;55961;52.156;20.942;2022-09-09T00:58:19;11.13;;;5.43;;
68923;SDS011;55961;52.156;20.942;2022-09-09T01:00:52;12.80;;;5.60;;
68923;SDS011;55961;52.156;20.942;2022-09-09T01:14:19;11.73;;;6.75;;
68923;SDS011;55961;52.156;20.942;2022-09-09T01:16:57;10.97;;;5.50;;
68923;SDS011;55961;52.156;20.942;2022-09-09T01:19:36;12.85;;;5.82;;
68923;SDS011;55961;52.156;20.942;2022-09-09T01:25:11;13.45;;;6.00;;
68923;SDS011;55961;52.156;20.942;2022-09-09T01:27:56;12.77;;;6.63;;
68923;SDS011;55961;52.156;20.942;2022-09-09T01:30:25;13.63;;;6.77;;
68923;SDS011;55961;52.156;20.942;2022-09-09T01:32:54;14.85;;;5.60;;
68923;SDS011;55961;52.156;20.942;2022-09-09T01:38:07;13.85;;;5.43;;
68923;SDS011;55961;52.156;20.942;2022-09-09T01:40:34;14.73;;;7.22;;
68923;SDS011;55961;52.156;20.942;2022-09-09T01:43:00;13.67;;;6.37;;
68923;SDS011;55961;52.156;20.942;2022-09-09T01:45:26;14.13;;;6.00;;
68923;SDS011;55961;52.156;20.942;2022-09-09T01:47:52;14.43;;;6.60;;
68923;SDS011;55961;52.156;20.942;2022-09-09T01:50:19;13.00;;;6.43;;
68923;SDS011;55961;52.156;20.942;2022-09-09T01:52:46;12.47;;;6.73;;
68923;SDS011;55961;52.156;20.942;2022-09-09T01:55:16;16.52;;;6.53;;
68923;SDS011;55961;52.156;20.942;2022-09-09T02:00:33;14.23;;;6.18;;
68923;SDS011;55961;52.156;20.942;2022-09-09T02:03:37;11.10;;;5.80;;
68923;SDS011;55961;52.156;20.942;2022-09-09T02:08:37;9.77;;;3.28;;
68923;SDS011;55961;52.156;20.942;2022-09-09T02:11:14;13.85;;;6.47;;
68923;SDS011;55961;52.156;20.942;2022-09-09T02:13:42;15.15;;;6.20;;
68923;SDS011;55961;52.156;20.942;2022-09-09T02:18:52;12.47;;;6.27;;
68923;SDS011;55961;52.156;20.942;2022-09-09T02:21:43;14.65;;;6.80;;
68923;SDS011;55961;52.156;20.942;2022-09-09T02:24:30;14.07;;;6.47;;
68923;SDS011;55961;52.156;20.942;2022-09-09T02:26:58;12.95;;;6.10;;
68923;SDS011;55961;52.156;20.942;2022-09-09T02:32:23;18.63;;;7.83;;
68923;SDS011;55961;52.156;20.942;2022-09-09T02:34:50;11.60;;;5.47;;
68923;SDS011;55961;52.156;20.942;2022-09-09T02:37:27;14.98;;;7.30;;
68923;SDS011;55961;52.156;20.942;2022-09-09T02:40:01;11.38;;;6.13;;
68923;SDS011;55961;52.156;20.942;2022-09-09T02:42:31;15.25;;;6.93;;
68923;SDS011;55961;52.156;20.942;2022-09-09T02:44:57;16.43;;;7.63;;
68923;SDS011;55961;52.156;20.942;2022-09-09T02:47:30;13.95;;;7.10;;
68923;SDS011;55961;52.156;20.942;2022-09-09T02:55:44;17.85;;;7.35;;
68923;SDS011;55961;52.156;20.942;2022-09-09T02:58:17;15.40;;;6.90;;
68923;SDS011;55961;52.156;20.942;2022-09-09T03:00:46;14.13;;;6.95;;
68923;SDS011;55961;52.156;20.942;2022-09-09T03:03:13;14.15;;;7.47;;
68923;SDS011;55961;52.156;20.942;2022-09-09T03:05:41;12.80;;;6.57;;
68923;SDS011;55961;52.156;20.942;2022-09-09T03:08:08;12.40;;;6.85;;
68923;SDS011;55961;52.156;20.942;2022-09-09T03:10:34;14.27;;;6.70;;
68923;SDS011;55961;52.156;20.942;2022-09-09T03:13:00;13.60;;;6.28;;
68923;SDS011;55961;52.156;20.942;2022-09-09T03:15:26;14.70;;;5.93;;
68923;SDS011;55961;52.156;20.942;2022-09-09T03:17:55;13.02;;;6.50;;
68923;SDS011;55961;52.156;20.942;2022-09-09T03:20:23;11.37;;;5.43;;
68923;SDS011;55961;52.156;20.942;2022-09-09T03:22:51;12.48;;;6.50;;
68923;SDS011;55961;52.156;20.942;2022-09-09T03:25:18;12.73;;;6.47;;
68923;SDS011;55961;52.156;20.942;2022-09-09T03:27:45;14.35;;;6.43;;
68923;SDS011;55961;52.156;20.942;2022-09-09T03:30:11;13.82;;;6.60;;
68923;SDS011;55961;52.156;20.942;2022-09-09T03:32:36;12.20;;;6.10;;
68923;SDS011;55961;52.156;20.942;2022-09-09T03:35:03;13.73;;;6.45;;
68923;SDS011;55961;52.156;20.942;2022-09-09T03:37:29;14.60;;;6.63;;
68923;SDS011;55961;52.156;20.942;2022-09-09T03:39:55;13.37;;;6.33;;
68923;SDS011;55961;52.156;20.942;2022-09-09T03:42:21;11.43;;;5.40;;
68923;SDS011;55961;52.156;20.942;2022-09-09T03:44:47;11.38;;;6.25;;
68923;SDS011;55961;52.156;20.942;2022-09-09T03:47:15;13.70;;;6.78;;
68923;SDS011;55961;52.156;20.942;2022-09-09T03:49:42;11.67;;;6.83;;
68923;SDS011;55961;52.156;20.942;2022-09-09T03:52:08;13.07;;;6.47;;
68923;SDS011;55961;52.156;20.942;2022-09-09T03:54:34;14.02;;;7.35;;
68923;SDS011;55961;52.156;20.942;2022-09-09T03:57:01;11.18;;;6.30;;
68923;SDS011;55961;52.156;20.942;2022-09-09T03:59:27;11.18;;;6.18;;
68923;SDS011;55961;52.156;20.942;2022-09-09T04:01:53;14.03;;;7.17;;
68923;SDS011;55961;52.156;20.942;2022-09-09T04:04:19;14.73;;;6.93;;
68923;SDS011;55961;52.156;20.942;2022-09-09T04:06:46;11.13;;;6.20;;
68923;SDS011;55961;52.156;20.942;2022-09-09T04:09:13;11.77;;;6.43;;
68923;SDS011;55961;52.156;20.942;2022-09-09T04:11:40;13.83;;;6.60;;
68923;SDS011;55961;52.156;20.942;2022-09-09T04:14:06;11.60;;;6.70;;
68923;SDS011;55961;52.156;20.942;2022-09-09T04:16:32;11.65;;;6.47;;
68923;SDS011;55961;52.156;20.942;2022-09-09T04:18:58;12.43;;;6.40;;
68923;SDS011;55961;52.156;20.942;2022-09-09T04:21:25;12.00;;;6.27;;
68923;SDS011;55961;52.156;20.942;2022-09-09T04:23:51;11.20;;;6.25;;
68923;SDS011;55961;52.156;20.942;2022-09-09T04:26:17;11.20;;;6.18;;
68923;SDS011;55961;52.156;20.942;2022-09-09T04:28:43;11.25;;;6.28;;
68923;SDS011;55961;52.156;20.942;2022-09-09T04:31:10;12.07;;;6.37;;
68923;SDS011;55961;52.156;20.942;2022-09-09T04:33:46;11.95;;;6.82;;
68923;SDS011;55961;52.156;20.942;2022-09-09T04:36:12;10.98;;;5.68;;
68923;SDS011;55961;52.156;20.942;2022-09-09T04:38:38;11.63;;;5.80;;
68923;SDS011;55961;52.156;20.942;2022-09-09T04:41:05;11.40;;;6.20;;
68923;SDS011;55961;52.156;20.942;2022-09-09T04:43:31;10.13;;;5.75;;
68923;SDS011;55961;52.156;20.942;2022-09-09T04:45:57;11.20;;;6.05;;
68923;SDS011;55961;52.156;20.942;2022-09-09T04:48:24;11.75;;;6.03;;
68923;SDS011;55961;52.156;20.942;2022-09-09T04:50:57;10.50;;;6.17;;
68923;SDS011;55961;52.156;20.942;2022-09-09T04:53:27;12.77;;;6.53;;
68923;SDS011;55961;52.156;20.942;2022-09-09T04:56:00;10.32;;;5.68;;
68923;SDS011;55961;52.156;20.942;2022-09-09T04:58:37;10.75;;;5.70;;
68923;SDS011;55961;52.156;20.942;2022-09-09T05:01:07;10.85;;;5.72;;
68923;SDS011;55961;52.156;20.942;2022-09-09T05:03:43;11.57;;;6.10;;
68923;SDS011;55961;52.156;20.942;2022-09-09T05:06:11;12.07;;;5.72;;
68923;SDS011;55961;52.156;20.942;2022-09-09T05:08:39;12.40;;;6.20;;
68923;SDS011;55961;52.156;20.942;2022-09-09T05:11:20;12.18;;;6.13;;
68923;SDS011;55961;52.156;20.942;2022-09-09T05:13:47;11.30;;;5.97;;
68923;SDS011;55961;52.156;20.942;2022-09-09T05:16:13;9.47;;;5.43;;
68923;SDS011;55961;52.156;20.942;2022-09-09T05:18:40;11.75;;;6.10;;
68923;SDS011;55961;52.156;20.942;2022-09-09T05:21:08;7.97;;;4.65;;
68923;SDS011;55961;52.156;20.942;2022-09-09T05:23:35;9.52;;;5.50;;
68923;SDS011;55961;52.156;20.942;2022-09-09T05:26:02;11.70;;;5.25;;
68923;SDS011;55961;52.156;20.942;2022-09-09T05:28:28;13.73;;;6.20;;
68923;SDS011;55961;52.156;20.942;2022-09-09T05:30:59;9.88;;;5.50;;
68923;SDS011;55961;52.156;20.942;2022-09-09T05:33:26;10.80;;;5.82;;
68923;SDS011;55961;52.156;20.942;2022-09-09T05:36:02;9.77;;;5.68;;
68923;SDS011;55961;52.156;20.942;2022-09-09T05:38:32;10.75;;;5.53;;
68923;SDS011;55961;52.156;20.942;2022-09-09T05:40:58;11.20;;;5.50;;
68923;SDS011;55961;52.156;20.942;2022-09-09T05:43:25;10.45;;;5.40;;
68923;SDS011;55961;52.156;20.942;2022-09-09T05:46:02;8.65;;;5.20;;
68923;SDS011;55961;52.156;20.942;2022-09-09T05:48:30;9.65;;;5.40;;
68923;SDS011;55961;52.156;20.942;2022-09-09T05:50:58;12.13;;;5.95;;
68923;SDS011;55961;52.156;20.942;2022-09-09T05:53:25;11.03;;;6.00;;
68923;SDS011;55961;52.156;20.942;2022-09-09T05:55:59;12.35;;;6.13;;
68923;SDS011;55961;52.156;20.942;2022-09-09T05:58:27;12.50;;;5.55;;
68923;SDS011;55961;52.156;20.942;2022-09-09T06:00:52;10.77;;;5.88;;
68923;SDS011;55961;52.156;20.942;2022-09-09T06:03:24;11.10;;;5.72;;
68923;SDS011;55961;52.156;20.942;2022-09-09T06:05:56;10.43;;;5.27;;
68923;SDS011;55961;52.156;20.942;2022-09-09T06:08:26;10.35;;;6.07;;
68923;SDS011;55961;52.156;20.942;2022-09-09T06:10:52;11.82;;;6.25;;
68923;SDS011;55961;52.156;20.942;2022-09-09T06:13:18;8.50;;;5.20;;
68923;SDS011;55961;52.156;20.942;2022-09-09T06:15:51;8.35;;;5.50;;
68923;SDS011;55961;52.156;20.942;2022-09-09T06:18:18;9.35;;;5.95;;
68923;SDS011;55961;52.156;20.942;2022-09-09T06:20:53;10.65;;;6.20;;
68923;SDS011;55961;52.156;20.942;2022-09-09T06:23:24;9.40;;;5.33;;
68923;SDS011;55961;52.156;20.942;2022-09-09T06:25:50;10.70;;;6.97;;
68923;SDS011;55961;52.156;20.942;2022-09-09T06:28:17;10.50;;;5.60;;
68923;SDS011;55961;52.156;20.942;2022-09-09T06:30:43;11.02;;;6.00;;
68923;SDS011;55961;52.156;20.942;2022-09-09T06:33:10;11.10;;;6.18;;
68923;SDS011;55961;52.156;20.942;2022-09-09T06:35:36;13.03;;;6.70;;
68923;SDS011;55961;52.156;20.942;2022-09-09T06:38:01;12.63;;;5.97;;
68923;SDS011;55961;52.156;20.942;2022-09-09T06:40:28;10.20;;;5.97;;
68923;SDS011;55961;52.156;20.942;2022-09-09T06:42:59;12.02;;;6.50;;
68923;SDS011;55961;52.156;20.942;2022-09-09T06:45:26;10.88;;;6.70;;
68923;SDS011;55961;52.156;20.942;2022-09-09T06:47:54;10.70;;;6.50;;
68923;SDS011;55961;52.156;20.942;2022-09-09T06:50:20;11.20;;;6.68;;
68923;SDS011;55961;52.156;20.942;2022-09-09T06:52:46;11.77;;;6.50;;
68923;SDS011;55961;52.156;20.942;2022-09-09T06:55:12;11.70;;;6.55;;
68923;SDS011;55961;52.156;20.942;2022-09-09T06:57:41;12.47;;;6.80;;
68923;SDS011;55961;52.156;20.942;2022-09-09T07:00:07;10.20;;;6.60;;
68923;SDS011;55961;52.156;20.942;2022-09-09T07:02:33;11.95;;;6.55;;
68923;SDS011;55961;52.156;20.942;2022-09-09T07:05:04;10.88;;;6.30;;
68923;SDS011;55961;52.156;20.942;2022-09-09T07:07:30;12.10;;;7.13;;
68923;SDS011;55961;52.156;20.942;2022-09-09T07:09:56;10.37;;;6.40;;
68923;SDS011;55961;52.156;20.942;2022-09-09T07:12:21;11.35;;;6.72;;
68923;SDS011;55961;52.156;20.942;2022-09-09T07:14:47;12.83;;;7.40;;
68923;SDS011;55961;52.156;20.942;2022-09-09T07:17:13;13.65;;;7.53;;
68923;SDS011;55961;52.156;20.942;2022-09-09T07:19:39;11.95;;;7.30;;
68923;SDS011;55961;52.156;20.942;2022-09-09T07:22:05;11.20;;;7.70;;
68923;SDS011;55961;52.156;20.942;2022-09-09T07:24:31;13.30;;;7.50;;
68923;SDS011;55961;52.156;20.942;2022-09-09T07:26:57;14.45;;;7.72;;
68923;SDS011;55961;52.156;20.942;2022-09-09T07:29:23;12.05;;;7.93;;
68923;SDS011;55961;52.156;20.942;2022-09-09T07:31:49;15.13;;;7.80;;
68923;SDS011;55961;52.156;20.942;2022-09-09T07:34:15;15.32;;;8.00;;
68923;SDS011;55961;52.156;20.942;2022-09-09T07:36:41;14.23;;;8.10;;
68923;SDS011;55961;52.156;20.942;2022-09-09T07:39:10;14.15;;;7.45;;
68923;SDS011;55961;52.156;20.942;2022-09-09T07:41:39;12.23;;;7.78;;
68923;SDS011;55961;52.156;20.942;2022-09-09T07:44:11;13.60;;;8.20;;
68923;SDS011;55961;52.156;20.942;2022-09-09T07:46:38;14.90;;;8.50;;
68923;SDS011;55961;52.156;20.942;2022-09-09T07:49:05;11.60;;;6.83;;
68923;SDS011;55961;52.156;20.942;2022-09-09T07:51:40;13.82;;;8.02;;
68923;SDS011;55961;52.156;20.942;2022-09-09T07:54:10;15.05;;;8.00;;
68923;SDS011;55961;52.156;20.942;2022-09-09T07:56:38;14.25;;;8.70;;
68923;SDS011;55961;52.156;20.942;2022-09-09T07:59:05;13.23;;;8.57;;
68923;SDS011;55961;52.156;20.942;2022-09-09T08:01:33;18.43;;;10.27;;
68923;SDS011;55961;52.156;20.942;2022-09-09T08:04:03;16.63;;;8.90;;
68923;SDS011;55961;52.156;20.942;2022-09-09T08:06:36;18.75;;;10.57;;
68923;SDS011;55961;52.156;20.942;2022-09-09T08:09:04;16.05;;;8.82;;
68923;SDS011;55961;52.156;20.942;2022-09-09T08:11:31;22.92;;;14.13;;
68923;SDS011;55961;52.156;20.942;2022-09-09T08:13:58;16.93;;;9.97;;
68923;SDS011;55961;52.156;20.942;2022-09-09T08:16:25;14.48;;;9.60;;
68923;SDS011;55961;52.156;20.942;2022-09-09T08:18:52;17.63;;;9.65;;
68923;SDS011;55961;52.156;20.942;2022-09-09T08:21:23;16.10;;;9.65;;
68923;SDS011;55961;52.156;20.942;2022-09-09T08:23:52;17.67;;;11.07;;
68923;SDS011;55961;52.156;20.942;2022-09-09T08:26:20;17.50;;;10.93;;
68923;SDS011;55961;52.156;20.942;2022-09-09T08:28:51;18.38;;;10.23;;
68923;SDS011;55961;52.156;20.942;2022-09-09T08:31:20;21.88;;;11.02;;
68923;SDS011;55961;52.156;20.942;2022-09-09T08:33:48;22.65;;;13.45;;
68923;SDS011;55961;52.156;20.942;2022-09-09T08:36:18;17.17;;;10.05;;
68923;SDS011;55961;52.156;20.942;2022-09-09T08:38:56;14.80;;;9.83;;
68923;SDS011;55961;52.156;20.942;2022-09-09T08:47:20;19.20;;;10.15;;
68923;SDS011;55961;52.156;20.942;2022-09-09T08:52:28;18.97;;;11.30;;
68923;SDS011;55961;52.156;20.942;2022-09-09T08:54:56;19.25;;;11.60;;
68923;SDS011;55961;52.156;20.942;2022-09-09T08:57:44;19.85;;;11.23;;
68923;SDS011;55961;52.156;20.942;2022-09-09T09:00:11;18.10;;;11.38;;
68923;SDS011;55961;52.156;20.942;2022-09-09T09:05:46;22.00;;;11.20;;
68923;SDS011;55961;52.156;20.942;2022-09-09T09:10:57;21.40;;;11.05;;
68923;SDS011;55961;52.156;20.942;2022-09-09T09:13:39;22.08;;;11.82;;
68923;SDS011;55961;52.156;20.942;2022-09-09T09:16:14;26.30;;;12.90;;
68923;SDS011;55961;52.156;20.942;2022-09-09T09:18:46;24.43;;;12.43;;
68923;SDS011;55961;52.156;20.942;2022-09-09T09:24:18;24.70;;;12.15;;
68923;SDS011;55961;52.156;20.942;2022-09-09T09:26:44;20.60;;;11.90;;
68923;SDS011;55961;52.156;20.942;2022-09-09T09:29:15;26.43;;;13.10;;
68923;SDS011;55961;52.156;20.942;2022-09-09T09:31:53;22.88;;;12.82;;
68923;SDS011;55961;52.156;20.942;2022-09-09T09:34:23;28.25;;;12.98;;
68923;SDS011;55961;52.156;20.942;2022-09-09T09:36:56;25.27;;;12.35;;
68923;SDS011;55961;52.156;20.942;2022-09-09T09:39:30;24.00;;;12.05;;
68923;SDS011;55961;52.156;20.942;2022-09-09T09:42:09;26.87;;;12.87;;
68923;SDS011;55961;52.156;20.942;2022-09-09T09:44:40;24.08;;;13.27;;
68923;SDS011;55961;52.156;20.942;2022-09-09T09:47:08;32.95;;;14.88;;
68923;SDS011;55961;52.156;20.942;2022-09-09T09:49:38;29.45;;;14.52;;
68923;SDS011;55961;52.156;20.942;2022-09-09T09:52:05;28.50;;;14.63;;
68923;SDS011;55961;52.156;20.942;2022-09-09T09:54:33;27.47;;;13.40;;
68923;SDS011;55961;52.156;20.942;2022-09-09T09:57:10;25.98;;;13.23;;
68923;SDS011;55961;52.156;20.942;2022-09-09T09:59:38;25.95;;;14.07;;
68923;SDS011;55961;52.156;20.942;2022-09-09T10:02:21;24.80;;;13.27;;
68923;SDS011;55961;52.156;20.942;2022-09-09T10:05:02;26.13;;;13.75;;
68923;SDS011;55961;52.156;20.942;2022-09-09T10:07:31;26.07;;;12.73;;
68923;SDS011;55961;52.156;20.942;2022-09-09T10:09:58;24.33;;;12.88;;
68923;SDS011;55961;52.156;20.942;2022-09-09T10:12:28;27.98;;;14.63;;
68923;SDS011;55961;52.156;20.942;2022-09-09T10:15:48;29.17;;;14.57;;
68923;SDS011;55961;52.156;20.942;2022-09-09T10:23:56;30.48;;;15.38;;
68923;SDS011;55961;52.156;20.942;2022-09-09T10:29:14;31.52;;;15.20;;
68923;SDS011;55961;52.156;20.942;2022-09-09T10:37:18;32.83;;;16.92;;
68923;SDS011;55961;52.156;20.942;2022-09-09T10:40:17;32.85;;;15.80;;
68923;SDS011;55961;52.156;20.942;2022-09-09T10:42:58;33.90;;;16.23;;
68923;SDS011;55961;52.156;20.942;2022-09-09T10:48:12;33.78;;;16.25;;
68923;SDS011;55961;52.156;20.942;2022-09-09T10:50:50;32.15;;;16.75;;
68923;SDS011;55961;52.156;20.942;2022-09-09T10:56:27;34.00;;;17.25;;
68923;SDS011;55961;52.156;20.942;2022-09-09T10:59:02;33.00;;;15.90;;
68923;SDS011;55961;52.156;20.942;2022-09-09T11:01:39;32.13;;;15.63;;
68923;SDS011;55961;52.156;20.942;2022-09-09T11:04:19;32.30;;;16.65;;
68923;SDS011;55961;52.156;20.942;2022-09-09T11:06:50;34.10;;;15.85;;
68923;SDS011;55961;52.156;20.942;2022-09-09T11:09:22;35.40;;;17.20;;
68923;SDS011;55961;52.156;20.942;2022-09-09T11:14:22;36.17;;;17.20;;
68923;SDS011;55961;52.156;20.942;2022-09-09T11:17:03;36.40;;;18.45;;
68923;SDS011;55961;52.156;20.942;2022-09-09T11:19:35;40.00;;;18.95;;
68923;SDS011;55961;52.156;20.942;2022-09-09T11:25:10;37.13;;;18.23;;
68923;SDS011;55961;52.156;20.942;2022-09-09T11:41:44;39.67;;;18.40;;
68923;SDS011;55961;52.156;20.942;2022-09-09T11:44:17;40.47;;;19.73;;
68923;SDS011;55961;52.156;20.942;2022-09-09T11:46:49;40.20;;;19.77;;
68923;SDS011;55961;52.156;20.942;2022-09-09T11:49:30;41.08;;;19.52;;
68923;SDS011;55961;52.156;20.942;2022-09-09T11:52:12;47.67;;;20.33;;
68923;SDS011;55961;52.156;20.942;2022-09-09T11:54:48;41.72;;;20.33;;
68923;SDS011;55961;52.156;20.942;2022-09-09T11:57:32;38.80;;;18.52;;
68923;SDS011;55961;52.156;20.942;2022-09-09T12:00:01;39.70;;;18.95;;
68923;SDS011;55961;52.156;20.942;2022-09-09T12:02:28;41.20;;;21.00;;
68923;SDS011;55961;52.156;20.942;2022-09-09T12:05:02;38.87;;;18.57;;
68923;SDS011;55961;52.156;20.942;2022-09-09T12:07:38;40.33;;;19.20;;
68923;SDS011;55961;52.156;20.942;2022-09-09T12:10:27;44.63;;;20.85;;
68923;SDS011;55961;52.156;20.942;2022-09-09T12:15:51;46.20;;;22.45;;
68923;SDS011;55961;52.156;20.942;2022-09-09T12:18:35;46.27;;;20.80;;
68923;SDS011;55961;52.156;20.942;2022-09-09T12:29:02;47.42;;;22.20;;
68923;SDS011;55961;52.156;20.942;2022-09-09T12:31:51;48.23;;;21.83;;
68923;SDS011;55961;52.156;20.942;2022-09-09T12:40:22;46.08;;;21.90;;
68923;SDS011;55961;52.156;20.942;2022-09-09T12:42:52;48.47;;;21.48;;
68923;SDS011;55961;52.156;20.942;2022-09-09T12:45:24;45.07;;;20.93;;
68923;SDS011;55961;52.156;20.942;2022-09-09T12:47:59;44.03;;;21.67;;
68923;SDS011;55961;52.156;20.942;2022-09-09T12:50:32;43.80;;;20.08;;
68923;SDS011;55961;52.156;20.942;2022-09-09T12:53:31;44.63;;;21.02;;
68923;SDS011;55961;52.156;20.942;2022-09-09T12:56:01;45.38;;;22.42;;
68923;SDS011;55961;52.156;20.942;2022-09-09T12:58:29;46.93;;;21.83;;
68923;SDS011;55961;52.156;20.942;2022-09-09T13:01:00;49.17;;;23.38;;
68923;SDS011;55961;52.156;20.942;2022-09-09T13:03:30;51.70;;;22.55;;
68923;SDS011;55961;52.156;20.942;2022-09-09T13:05:58;45.88;;;21.90;;
68923;SDS011;55961;52.156;20.942;2022-09-09T13:08:35;43.58;;;20.75;;
68923;SDS011;55961;52.156;20.942;2022-09-09T13:11:02;40.60;;;20.47;;
68923;SDS011;55961;52.156;20.942;2022-09-09T13:13:35;47.10;;;20.38;;
68923;SDS011;55961;52.156;20.942;2022-09-09T13:16:03;46.78;;;21.23;;
68923;SDS011;55961;52.156;20.942;2022-09-09T13:18:33;44.78;;;21.90;;
68923;SDS011;55961;52.156;20.942;2022-09-09T13:21:01;45.33;;;20.63;;
68923;SDS011;55961;52.156;20.942;2022-09-09T13:23:32;48.10;;;21.80;;
68923;SDS011;55961;52.156;20.942;2022-09-09T13:26:18;48.17;;;22.38;;
68923;SDS011;55961;52.156;20.942;2022-09-09T13:28:46;45.00;;;20.75;;
68923;SDS011;55961;52.156;20.942;2022-09-09T13:31:28;45.90;;;20.10;;
68923;SDS011;55961;52.156;20.942;2022-09-09T13:33:56;45.77;;;22.00;;
68923;SDS011;55961;52.156;20.942;2022-09-09T13:36:29;47.15;;;21.80;;
68923;SDS011;55961;52.156;20.942;2022-09-09T13:38:58;48.67;;;20.52;;
68923;SDS011;55961;52.156;20.942;2022-09-09T13:41:25;48.55;;;21.73;;
68923;SDS011;55961;52.156;20.942;2022-09-09T13:44:02;49.10;;;20.15;;
68923;SDS011;55961;52.156;20.942;2022-09-09T13:51:38;43.42;;;20.70;;
68923;SDS011;55961;52.156;20.942;2022-09-09T13:54:09;42.33;;;19.52;;
68923;SDS011;55961;52.156;20.942;2022-09-09T13:56:37;47.88;;;21.80;;
68923;SDS011;55961;52.156;20.942;2022-09-09T13:59:04;49.37;;;19.50;;
68923;SDS011;55961;52.156;20.942;2022-09-09T14:01:33;41.65;;;18.73;;
68923;SDS011;55961;52.156;20.942;2022-09-09T14:03:59;44.70;;;21.17;;
68923;SDS011;55961;52.156;20.942;2022-09-09T14:06:26;47.65;;;21.08;;
68923;SDS011;55961;52.156;20.942;2022-09-09T14:08:52;46.47;;;19.80;;
68923;SDS011;55961;52.156;20.942;2022-09-09T14:11:20;45.43;;;21.20;;
68923;SDS011;55961;52.156;20.942;2022-09-09T14:13:47;47.78;;;20.83;;
68923;SDS011;55961;52.156;20.942;2022-09-09T14:16:15;43.33;;;20.20;;
68923;SDS011;55961;52.156;20.942;2022-09-09T14:18:42;46.47;;;21.02;;
68923;SDS011;55961;52.156;20.942;2022-09-09T14:21:09;41.53;;;19.77;;
68923;SDS011;55961;52.156;20.942;2022-09-09T14:23:36;45.67;;;19.97;;
68923;SDS011;55961;52.156;20.942;2022-09-09T14:26:03;48.35;;;20.80;;
68923;SDS011;55961;52.156;20.942;2022-09-09T14:28:30;43.72;;;20.08;;
68923;SDS011;55961;52.156;20.942;2022-09-09T14:30:58;47.10;;;20.33;;
68923;SDS011;55961;52.156;20.942;2022-09-09T14:33:25;43.83;;;20.92;;
68923;SDS011;55961;52.156;20.942;2022-09-09T14:35:55;41.70;;;19.83;;
68923;SDS011;55961;52.156;20.942;2022-09-09T14:38:22;42.67;;;19.80;;
68923;SDS011;55961;52.156;20.942;2022-09-09T14:40:48;42.65;;;19.10;;
68923;SDS011;55961;52.156;20.942;2022-09-09T14:43:13;42.83;;;18.93;;
68923;SDS011;55961;52.156;20.942;2022-09-09T14:45:40;41.75;;;19.35;;
68923;SDS011;55961;52.156;20.942;2022-09-09T14:48:05;47.23;;;20.57;;
68923;SDS011;55961;52.156;20.942;2022-09-09T14:50:31;39.70;;;17.73;;
68923;SDS011;55961;52.156;20.942;2022-09-09T14:52:57;41.28;;;19.27;;
68923;SDS011;55961;52.156;20.942;2022-09-09T14:55:23;46.67;;;19.57;;
68923;SDS011;55961;52.156;20.942;2022-09-09T14:57:49;39.30;;;18.90;;
68923;SDS011;55961;52.156;20.942;2022-09-09T15:00:15;35.35;;;15.82;;
68923;SDS011;55961;52.156;20.942;2022-09-09T15:02:41;41.42;;;19.55;;
68923;SDS011;55961;52.156;20.942;2022-09-09T15:05:07;33.73;;;16.50;;
68923;SDS011;55961;52.156;20.942;2022-09-09T15:07:33;45.72;;;20.10;;
68923;SDS011;55961;52.156;20.942;2022-09-09T15:09:59;39.80;;;18.73;;
68923;SDS011;55961;52.156;20.942;2022-09-09T15:12:25;43.27;;;19.43;;
68923;SDS011;55961;52.156;20.942;2022-09-09T15:14:51;38.22;;;18.17;;
68923;SDS011;55961;52.156;20.942;2022-09-09T15:17:18;37.78;;;17.52;;
68923;SDS011;55961;52.156;20.942;2022-09-09T15:19:45;39.73;;;17.70;;
68923;SDS011;55961;52.156;20.942;2022-09-09T15:22:11;47.92;;;22.20;;
68923;SDS011;55961;52.156;20.942;2022-09-09T15:24:37;38.92;;;20.23;;
68923;SDS011;55961;52.156;20.942;2022-09-09T15:27:03;34.77;;;17.07;;
68923;SDS011;55961;52.156;20.942;2022-09-09T15:29:29;40.70;;;19.08;;
68923;SDS011;55961;52.156;20.942;2022-09-09T15:31:54;42.55;;;18.77;;
68923;SDS011;55961;52.156;20.942;2022-09-09T15:34:20;41.00;;;17.93;;
68923;SDS011;55961;52.156;20.942;2022-09-09T15:36:47;43.50;;;19.73;;
68923;SDS011;55961;52.156;20.942;2022-09-09T15:39:16;42.13;;;20.08;;
68923;SDS011;55961;52.156;20.942;2022-09-09T15:41:46;40.25;;;19.85;;
68923;SDS011;55961;52.156;20.942;2022-09-09T15:44:14;41.40;;;21.03;;
68923;SDS011;55961;52.156;20.942;2022-09-09T15:46:58;40.42;;;19.77;;
68923;SDS011;55961;52.156;20.942;2022-09-09T15:49:25;44.38;;;18.92;;
68923;SDS011;55961;52.156;20.942;2022-09-09T15:51:52;40.70;;;19.52;;
68923;SDS011;55961;52.156;20.942;2022-09-09T15:54:23;43.45;;;19.20;;
68923;SDS011;55961;52.156;20.942;2022-09-09T15:56:52;41.43;;;20.03;;
68923;SDS011;55961;52.156;20.942;2022-09-09T15:59:25;41.95;;;20.45;;
68923;SDS011;55961;52.156;20.942;2022-09-09T16:01:53;44.50;;;19.92;;
68923;SDS011;55961;52.156;20.942;2022-09-09T16:04:20;45.58;;;21.98;;
68923;SDS011;55961;52.156;20.942;2022-09-09T16:06:51;43.60;;;21.42;;
68923;SDS011;55961;52.156;20.942;2022-09-09T16:09:21;43.63;;;19.20;;
68923;SDS011;55961;52.156;20.942;2022-09-09T16:11:47;40.78;;;19.88;;
68923;SDS011;55961;52.156;20.942;2022-09-09T16:14:13;42.00;;;20.10;;
68923;SDS011;55961;52.156;20.942;2022-09-09T16:16:41;42.45;;;19.20;;
68923;SDS011;55961;52.156;20.942;2022-09-09T16:19:08;41.78;;;20.65;;
68923;SDS011;55961;52.156;20.942;2022-09-09T16:21:44;43.77;;;20.13;;
68923;SDS011;55961;52.156;20.942;2022-09-09T16:24:13;39.78;;;19.83;;
68923;SDS011;55961;52.156;20.942;2022-09-09T16:26:41;40.80;;;20.60;;
68923;SDS011;55961;52.156;20.942;2022-09-09T16:29:15;38.88;;;20.35;;
68923;SDS011;55961;52.156;20.942;2022-09-09T16:31:42;43.35;;;20.02;;
68923;SDS011;55961;52.156;20.942;2022-09-09T16:34:09;40.30;;;19.53;;
68923;SDS011;55961;52.156;20.942;2022-09-09T16:36:36;38.15;;;18.38;;
68923;SDS011;55961;52.156;20.942;2022-09-09T16:39:05;43.50;;;21.17;;
68923;SDS011;55961;52.156;20.942;2022-09-09T16:41:34;40.72;;;19.95;;
68923;SDS011;55961;52.156;20.942;2022-09-09T16:44:01;44.03;;;21.48;;